Flight Track Log - Related Links

Times and Time Zones

All times are in EDT time to prevent confusion due to time zone crossing. See the EGF3046 flight status page for this flight to view local times or setup timezone preferences in your user account.

Time Position Orientation Groundspeed Altitude Reporting Facility
EDT Latitude Longitude Course Direction KTS MPH feet Rate Location/Type
Wed 03:45:14 PM 42.0000 -87.8833 66° East 157 181 1,600  Level Chicago TRACON
Wed 03:46:14 PM 42.0333 -87.8167 56° Northeast 215 247 3,300 1,850 Climbing Chicago TRACON
Wed 03:47:00 PM 42.1031 -87.5223 59° Northeast  Level FlightAware Approximate
Wed 03:47:14 PM 42.0500 -87.7333 75° East 271 312 5,300  Level Chicago TRACON
Wed 03:48:00 PM 42.1565 -87.3972 66° East  Level FlightAware Approximate
Wed 03:48:14 PM 42.0833 -87.6333 66° East 284 327 7,800  Level Chicago TRACON
Wed 03:49:00 PM 42.2005 -87.2654 66° East  Level FlightAware Approximate
Wed 03:49:14 PM 42.1167 -87.5333 66° East 293 337 10,000  Level Chicago TRACON
Wed 03:50:00 PM 42.2444 -87.1335 66° East  Level FlightAware Approximate
Wed 03:50:35 PM 42.1628 -87.3961 66° East 308 354 12,300  Level Chicago Center
Wed 03:51:37 PM 42.2006 -87.2872 65° Northeast 321 369 14,300 1,355 Climbing Chicago Center
Wed 03:52:39 PM 42.2400 -87.1747 65° Northeast 329 379 15,100 726 Climbing Chicago Center
Wed 03:53:41 PM 42.2794 -87.0503 67° East 356 410 15,800 629 Climbing Chicago Center
Wed 03:54:43 PM 42.2853 -86.9003 87° East 389 448 16,400 823 Climbing Chicago Center
Wed 03:55:45 PM 42.2917 -86.7147 87° East 410 472 17,500 774 Climbing Chicago Center
Wed 03:56:47 PM 42.2983 -86.5800 86° East 420 483 18,000 726 Climbing Chicago Center
Wed 03:57:49 PM 42.3044 -86.4008 87° East 421 484 19,000 919 Climbing Chicago Center
Wed 03:58:51 PM 42.3103 -86.2400 87° East 429 494 19,900 905 Climbing Chicago Center
Wed 03:59:55 PM 42.3161 -86.0792 87° East 432 497 20,900 1,087 Climbing Chicago Center
Wed 04:00:58 PM 42.3128 -85.8867 91° East 431 496 22,200 1,200 Climbing Chicago Center
Wed 04:02:00 PM 42.3103 -85.7244 91° East 434 499 23,400 1,258 Climbing Chicago Center
Wed 04:03:02 PM 42.3089 -85.5636 91° East 432 497 24,800 1,403 Climbing Chicago Center
Wed 04:04:04 PM 42.3061 -85.4047 91° East 429 494 26,300 1,403 Climbing Chicago Center
Wed 04:05:06 PM 42.3042 -85.2503 91° East 418 481 27,700 1,500 Climbing Chicago Center
Wed 04:06:08 PM 42.3006 -85.0692 91° East 406 467 29,400 1,548 Climbing Chicago Center
Wed 04:07:10 PM 42.2981 -84.9192 91° East 402 463 30,900 1,306 Climbing Chicago Center
Wed 04:08:12 PM 42.2936 -84.7700 92° East 402 463 32,100 1,016 Climbing Chicago Center
Wed 04:09:14 PM 42.2900 -84.6167 92° East 408 470 33,000 435 Climbing Chicago Center
Wed 04:10:16 PM 42.2881 -84.4522 91° East 435 501 33,000  Level Chicago Center
Wed 04:10:58 PM 42.3081 -84.3092 79° East 426 490 33,000  Level Cleveland Center
Wed 04:11:58 PM 42.3325 -84.1336 79° East 452 520 33,000  Level Cleveland Center
Wed 04:12:58 PM 42.3567 -83.9553 80° East 473 544 33,000  Level Cleveland Center
Wed 04:13:58 PM 42.3733 -83.8100 81° East 478 550 33,000  Level Cleveland Center
Wed 04:14:58 PM 42.3972 -83.6169 80° East 483 556 33,000 300 Level Cleveland Center
Wed 04:15:58 PM 42.4125 -83.4236 84° East 477 549 33,600 500 Climbing Cleveland Center
Wed 04:16:58 PM 42.4292 -83.2500 83° East 472 543 34,000 200 Climbing Cleveland Center
Wed 04:17:58 PM 42.4475 -83.0903 81° East 472 543 34,000 350 Level Cleveland Center
Wed 04:18:58 PM 42.4658 -82.9167 82° East 472 543 34,700 800 Climbing Cleveland Center
Wed 04:19:58 PM 42.4817 -82.7425 83° East 466 536 35,600 850 Climbing Cleveland Center
Wed 04:20:58 PM 42.4992 -82.5742 82° East 461 531 36,400 700 Climbing Cleveland Center
Wed 04:21:58 PM 42.5125 -82.4056 84° East 456 525 37,000 300 Climbing Cleveland Center
Wed 04:22:58 PM 42.5297 -82.2314 82° East 456 525 37,000  Level Cleveland Center
Wed 04:23:58 PM 42.5444 -82.0542 84° East 466 536 37,000  Level Cleveland Center
Wed 04:24:58 PM 42.5614 -81.8769 83° East 471 542 37,000  Level Cleveland Center
Wed 04:25:58 PM 42.5800 -81.6856 82° East 465 535 37,000  Level Cleveland Center
Wed 04:26:58 PM 42.5961 -81.5111 83° East 465 535 37,000  Level Cleveland Center
Wed 04:27:58 PM 42.6119 -81.3281 83° East 471 542 37,000  Level Cleveland Center
Wed 04:28:58 PM 42.6275 -81.1503 83° East 471 542 37,000  Level Cleveland Center
Wed 04:29:58 PM 42.6408 -80.9700 84° East 476 548 37,000  Level Cleveland Center
Wed 04:30:58 PM 42.6539 -80.8033 84° East 481 554 37,000  Level Cleveland Center
Wed 04:31:58 PM 42.6686 -80.6228 84° East 489 563 37,000  Level Cleveland Center
Wed 04:32:58 PM 42.6811 -80.4392 85° East 489 563 37,000 -150 Level Cleveland Center
Wed 04:33:58 PM 42.6972 -80.2556 83° East 489 563 36,700 -700 Descending Cleveland Center
Wed 04:34:58 PM 42.7092 -80.0661 85° East 489 563 35,600 -1,100 Descending Cleveland Center
Wed 04:35:58 PM 42.7269 -79.8653 83° East 489 563 34,500 -1,050 Descending Cleveland Center
Wed 04:36:58 PM 42.7381 -79.6900 85° East 478 550 33,500 -950 Descending Cleveland Center
Wed 04:37:58 PM 42.7533 -79.5144 83° East 473 544 32,600 -900 Descending Cleveland Center
Wed 04:38:58 PM 42.7661 -79.3361 84° East 473 544 31,700 -800 Descending Cleveland Center
Wed 04:39:58 PM 42.7744 -79.1606 86° East 467 537 31,000 -350 Descending Cleveland Center
Wed 04:40:58 PM 42.7889 -78.9819 84° East 462 532 31,000 -200 Level Cleveland Center
Wed 04:41:58 PM 42.7967 -78.8006 87° East 462 532 30,600 -750 Descending Cleveland Center
Wed 04:42:58 PM 42.8103 -78.6161 84° East 472 543 29,500 -1,050 Descending Cleveland Center
Wed 04:43:58 PM 42.8194 -78.4319 86° East 482 555 28,500 -750 Descending Cleveland Center
Wed 04:44:58 PM 42.8269 -78.2789 86° East 488 562 28,000 -250 Descending Cleveland Center
Wed 04:45:58 PM 42.8394 -78.0772 85° East 488 562 28,000 -350 Level Cleveland Center
Wed 04:46:58 PM 42.8497 -77.8900 86° East 488 562 27,300 -1,300 Descending Cleveland Center
Wed 04:47:58 PM 42.8600 -77.7083 86° East 483 556 25,400 -1,950 Descending Cleveland Center
Wed 04:48:58 PM 42.8661 -77.5322 87° East 478 550 23,400 -1,950 Descending Cleveland Center
Wed 04:49:58 PM 42.8758 -77.3617 85° East 467 537 21,500 -1,950 Descending Cleveland Center
Wed 04:50:58 PM 42.8836 -77.1914 86° East 456 525 19,500 -1,917 Descending Cleveland Center
Wed 04:52:47 PM 42.9281 -76.8956 78° East 416 479 16,100 -1,871 Descending Boston Center
Wed 04:53:48 PM 42.9608 -76.7503 73° East 408 470 14,200 -1,934 Descending Boston Center
Wed 04:54:48 PM 42.9875 -76.5903 77° East 395 455 12,200 -1,537 Descending Boston Center
Wed 04:55:49 PM 43.0047 -76.4608 80° East 336 387 11,100 -1,279 Descending Boston Center
Wed 04:56:50 PM 43.0192 -76.3481 80° East 283 326 9,600 -1,636 Descending Boston Center
Wed 04:57:50 PM 43.0350 -76.2442 78° East 277 319 7,800 -1,785 Descending Boston Center
Wed 04:58:51 PM 43.0489 -76.1453 79° East 269 310 6,000 -1,770 Descending Boston Center

Login

Don't have an account? Register now (free) for customized features, flight alerts, and more!